Poplar Flat, Kentucky
Current Conditions -  °F | °C
As of 3:55 PM on Tuesday 27 Jan 2015 (Local Time) from KFGX Reporting Station
Clear Clear  
Wind Chill: 17°   Ceiling: Unl
Heat Index: 28°   Visibility: 10mi
Dew Point: 15°   Wind: 12mph
Humidity: 59%   Direction: 350°N
Pressure: 30.1"   Gusts: 16mph
Location:  38.5845°N, 83.5468°W
Report Text: KFGX 272055Z AUTO 35010G14KT 10SM CLR M02/M09 A3010 RMK AO2 T10251095
Loading
Personal Weather Stations






























Interactive Weather Map New forecast layout! Learn more

10-Day Weather Forecast

Advertisements
Track Severe Weather on mobile